TimeEST,TemperatureF,Dew PointF,Humidity,Sea Level PressureIn,VisibilityMPH,Wind Direction,Wind SpeedMPH,Gust SpeedMPH,PrecipitationIn,Events,Conditions,WindDirDegrees,DateUTC
12:13 AM,25.2,14.9,65,30.24,10.0,NNW,5.8,-,N/A,Snow,Light Snow,340,2013-02-21 05:13:00
12:34 AM,25.2,14.9,65,30.25,10.0,NNW,10.4,-,N/A,Snow,Light Snow,340,2013-02-21 05:34:00
12:53 AM,25.2,15.3,66,30.25,10.0,NNW,8.1,-,N/A,Snow,Light Snow,330,2013-02-21 05:53:00
1:14 AM,25.2,15.3,66,30.25,10.0,NW,9.2,-,N/A,Snow,Light Snow,320,2013-02-21 06:14:00
1:33 AM,25.3,14.9,65,30.26,10.0,NW,10.4,-,N/A,Snow,Light Snow,320,2013-02-21 06:33:00
1:54 AM,25.2,15.8,68,30.27,10.0,NW,6.9,-,N/A,Snow,Light Snow,320,2013-02-21 06:54:00
2:13 AM,25.3,15.6,67,30.27,10.0,NW,5.8,9.2,N/A,Snow,Light Snow,310,2013-02-21 07:13:00
2:34 AM,25.5,15.8,67,30.27,10.0,NW,4.6,-,N/A,Snow,Light Snow,310,2013-02-21 07:34:00
2:53 AM,25.5,15.8,67,30.27,7.0,WNW,5.8,-,N/A,,Overcast,300,2013-02-21 07:53:00
3:14 AM,25.7,16.0,67,30.27,10.0,WNW,6.9,-,N/A,,Overcast,290,2013-02-21 08:14:00
3:33 AM,25.5,15.8,67,30.27,10.0,WNW,8.1,-,N/A,,Overcast,290,2013-02-21 08:33:00
3:53 AM,25.5,16.3,68,30.26,10.0,WNW,6.9,-,N/A,,Overcast,300,2013-02-21 08:53:00
4:13 AM,25.5,16.2,68,30.26,10.0,NW,8.1,-,N/A,,Overcast,310,2013-02-21 09:13:00
4:33 AM,25.7,16.2,67,30.27,10.0,WNW,6.9,-,N/A,,Overcast,300,2013-02-21 09:33:00
4:53 AM,25.7,16.3,68,30.27,10.0,WNW,8.1,-,N/A,,Overcast,300,2013-02-21 09:53:00
5:13 AM,25.7,16.5,68,30.28,10.0,WNW,10.4,-,N/A,,Overcast,300,2013-02-21 10:13:00
5:33 AM,25.7,16.2,67,30.28,10.0,NW,9.2,-,N/A,,Overcast,310,2013-02-21 10:33:00
5:53 AM,25.7,16.2,67,30.28,10.0,NNW,8.1,-,N/A,,Overcast,330,2013-02-21 10:53:00
6:14 AM,25.7,16.3,68,30.29,10.0,NW,8.1,-,N/A,,Overcast,310,2013-02-21 11:14:00
6:54 AM,25.7,16.3,68,30.30,10.0,NNW,8.1,-,N/A,,Overcast,330,2013-02-21 11:54:00
7:13 AM,25.7,16.3,68,30.32,10.0,NNW,10.4,16.1,N/A,,Overcast,340,2013-02-21 12:13:00
7:34 AM,26.1,16.2,66,30.32,10.0,North,9.2,-,N/A,,Overcast,360,2013-02-21 12:34:00
7:53 AM,26.1,16.5,67,30.31,10.0,North,9.2,16.1,N/A,,Overcast,350,2013-02-21 12:53:00
8:13 AM,26.1,16.9,68,30.31,10.0,North,8.1,-,N/A,,Overcast,10,2013-02-21 13:13:00
8:33 AM,25.7,16.7,69,30.30,10.0,North,13.8,-,N/A,,Overcast,10,2013-02-21 13:33:00
8:53 AM,25.9,16.9,69,30.30,10.0,NNE,9.2,-,N/A,,Overcast,30,2013-02-21 13:53:00
9:13 AM,26.2,16.5,67,30.32,7.0,NNE,9.2,-,N/A,,Overcast,30,2013-02-21 14:13:00
9:33 AM,26.4,16.5,66,30.32,10.0,NE,10.4,-,N/A,,Overcast,40,2013-02-21 14:33:00
9:53 AM,26.6,16.9,67,30.32,10.0,NNE,9.2,-,N/A,,Overcast,30,2013-02-21 14:53:00
10:13 AM,26.4,16.2,65,30.33,10.0,NE,10.4,-,N/A,,Overcast,40,2013-02-21 15:13:00
10:33 AM,26.1,16.2,66,30.33,10.0,East,9.2,-,N/A,,Overcast,80,2013-02-21 15:33:00
10:53 AM,25.5,15.6,66,30.35,10.0,ENE,9.2,-,N/A,,Overcast,70,2013-02-21 15:53:00
11:13 AM,25.9,15.8,66,30.34,10.0,ENE,10.4,-,N/A,,Overcast,70,2013-02-21 16:13:00
11:33 AM,25.5,15.4,66,30.34,10.0,NE,9.2,-,N/A,,Overcast,40,2013-02-21 16:33:00
11:53 AM,25.2,14.2,63,30.35,10.0,ENE,8.1,-,N/A,,Overcast,70,2013-02-21 16:53:00
12:13 PM,25.0,13.6,62,30.35,10.0,NE,5.8,-,N/A,,Overcast,50,2013-02-21 17:13:00
12:33 PM,25.3,13.6,61,30.34,10.0,ENE,9.2,-,N/A,,Overcast,60,2013-02-21 17:33:00
12:54 PM,21.9,11.5,64,30.35,10.0,NE,3.5,-,N/A,,Overcast,50,2013-02-21 17:54:00
1:13 PM,22.6,15.1,73,30.35,10.0,Calm,Calm,-,N/A,,Overcast,0,2013-02-21 18:13:00
1:34 PM,22.6,14.7,72,30.34,10.0,NNE,6.9,-,N/A,,Overcast,30,2013-02-21 18:34:00
1:53 PM,23.4,15.8,73,30.32,10.0,Calm,Calm,-,N/A,,Overcast,0,2013-02-21 18:53:00
2:13 PM,24.3,16.5,72,30.32,10.0,East,5.8,-,N/A,,Overcast,100,2013-02-21 19:13:00
2:33 PM,25.7,17.4,71,30.30,10.0,East,6.9,-,N/A,,Overcast,100,2013-02-21 19:33:00
2:53 PM,24.8,17.1,72,30.29,10.0,East,6.9,-,N/A,,Overcast,80,2013-02-21 19:53:00
3:13 PM,24.6,16.7,72,30.28,10.0,East,9.2,-,N/A,,Mostly Cloudy,90,2013-02-21 20:13:00
3:33 PM,25.7,17.6,71,30.27,10.0,East,11.5,-,N/A,,Mostly Cloudy,80,2013-02-21 20:33:00
3:53 PM,24.3,17.1,74,30.27,10.0,East,13.8,18.4,N/A,,Overcast,80,2013-02-21 20:53:00
4:14 PM,23.7,16.7,75,30.27,10.0,East,11.5,19.6,N/A,,Overcast,80,2013-02-21 21:14:00
4:33 PM,23.2,16.0,74,30.30,10.0,East,9.2,17.3,N/A,,Overcast,90,2013-02-21 21:33:00
4:53 PM,23.0,16.2,75,30.32,10.0,ENE,5.8,-,N/A,,Overcast,70,2013-02-21 21:53:00
5:13 PM,22.8,15.8,74,30.32,10.0,East,10.4,-,N/A,,Overcast,100,2013-02-21 22:13:00
5:33 PM,22.5,15.8,76,30.31,10.0,ENE,11.5,-,N/A,,Mostly Cloudy,70,2013-02-21 22:33:00
5:53 PM,22.1,15.4,76,30.30,10.0,East,13.8,-,N/A,,Mostly Cloudy,90,2013-02-21 22:53:00
6:13 PM,21.9,15.4,76,30.29,10.0,East,11.5,18.4,N/A,,Scattered Clouds,90,2013-02-21 23:13:00
6:34 PM,21.7,14.5,74,30.31,10.0,East,11.5,16.1,N/A,,Clear,100,2013-02-21 23:34:00
6:53 PM,21.2,14.0,74,30.30,10.0,East,10.4,-,N/A,,Clear,80,2013-02-21 23:53:00
7:14 PM,21.2,14.7,76,30.29,10.0,East,9.2,-,N/A,,Clear,90,2013-02-22 00:14:00
7:33 PM,21.2,14.9,77,30.28,10.0,ENE,11.5,-,N/A,,Clear,70,2013-02-22 00:33:00
7:54 PM,21.0,14.9,77,30.28,10.0,East,9.2,-,N/A,,Clear,80,2013-02-22 00:54:00
8:13 PM,20.7,14.9,78,30.27,10.0,ENE,11.5,-,N/A,,Clear,70,2013-02-22 01:13:00
8:34 PM,20.7,15.1,79,30.26,10.0,East,10.4,-,N/A,,Clear,80,2013-02-22 01:34:00
8:53 PM,20.3,15.6,82,30.25,10.0,ENE,13.8,17.3,N/A,,Clear,70,2013-02-22 01:53:00
9:14 PM,20.3,16.3,85,30.26,10.0,East,12.7,18.4,N/A,,Clear,80,2013-02-22 02:14:00
9:33 PM,20.3,16.3,85,30.25,10.0,ENE,15.0,19.6,N/A,,Clear,70,2013-02-22 02:33:00
9:54 PM,20.1,16.3,85,30.25,10.0,East,13.8,18.4,N/A,,Clear,80,2013-02-22 02:54:00
10:13 PM,20.3,16.5,85,30.24,10.0,East,11.5,17.3,N/A,,Clear,80,2013-02-22 03:13:00
10:33 PM,20.7,16.5,84,30.24,10.0,East,13.8,19.6,N/A,,Clear,80,2013-02-22 03:33:00
10:53 PM,21.0,15.8,80,30.24,10.0,East,17.3,23.0,N/A,,Clear,90,2013-02-22 03:53:00
11:13 PM,20.8,15.8,81,30.23,10.0,East,15.0,24.2,N/A,,Scattered Clouds,90,2013-02-22 04:13:00
11:33 PM,20.5,15.8,82,30.21,10.0,East,19.6,26.5,N/A,,Mostly Cloudy,90,2013-02-22 04:33:00
11:54 PM,20.5,16.2,83,30.19,10.0,East,17.3,24.2,N/A,,Mostly Cloudy,90,2013-02-22 04:54:00